Home   Weather   Italy   Novara   Past weeks
Flag for Italy

Past Weather in Novara, Italy — Yesterday and Last 2 Weeks

Currently: 81 °F. Passing clouds. (Weather station: Milan / Malpensa, Italy). See more current weather

Past Weather in Novara — Graph

°F

Novara Temperature Yesterday

Maximum temperature yesterday: 79 °F (at 4:50 pm)
Minimum temperature yesterday: 64 °F (at 10:50 pm)
Average temperature yesterday: 71 °F

High & Low Weather Summary for the Past Weeks

 TemperatureHumidityPressure
High86 °F (Jun 19, 3:50 pm)94% (Jun 8, 10:50 pm)30.18 "Hg (Jun 8, 10:50 pm)
Low54 °F (Jun 13, 4:20 am)35% (Jun 18, 2:20 pm)29.24 "Hg (Jun 13, 9:50 am)
Average69 °F70%29.93 "Hg
* Reported Jun 7 1:20 pm — Jun 22 1:20 pm, Novara. Weather by CustomWeather, © 2024

Note: Actual official high and low records may vary slightly from our data, if they occured in-between our weather recording intervals... More about our weather records

Novara Weather History for the Previous 24 Hours

Scroll right to see more
 ConditionsComfort  
Time TempWeatherWind HumidityBarometerVisibility
1:20 pm
Sat, Jun 22
79 °FPassing clouds.9 mph45%29.86 "HgN/A
12:50 pm79 °FPassing clouds.8 mph42%29.86 "HgN/A
12:20 pm77 °FPassing clouds.7 mph47%29.86 "HgN/A
11:50 am77 °FPassing clouds.7 mph51%29.86 "HgN/A
11:20 am75 °FPassing clouds.7 mph44%29.89 "HgN/A
10:50 am75 °FSunny.7 mph47%29.89 "Hg10 mi
10:20 am73 °FPassing clouds.7 mph44%29.89 "HgN/A
9:50 am73 °FPassing clouds.7 mph44%29.89 "HgN/A
9:20 am70 °FSunny.7 mph60%29.89 "Hg10 mi
8:50 am68 °FPassing clouds.6 mph60%29.89 "HgN/A
8:20 am66 °FSunny.7 mph64%29.89 "Hg10 mi
7:50 am66 °FSunny.7 mph68%29.89 "Hg10 mi
7:20 am63 °FSunny.8 mph77%29.89 "Hg10 mi
6:50 am61 °FPassing clouds.5 mph83%29.89 "HgN/A
6:20 am57 °FSunny.5 mph88%29.89 "Hg10 mi
5:50 am57 °FSunny.6 mph94%29.89 "Hg10 mi
5:20 am59 °FClear.2 mph88%29.89 "Hg10 mi
4:50 am57 °FClear.6 mph94%29.89 "Hg10 mi
4:20 am59 °FClear.7 mph94%29.92 "Hg10 mi
3:50 am59 °FClear.6 mph94%29.92 "Hg10 mi
3:20 am61 °FClear.1 mph88%29.92 "Hg10 mi
2:50 am61 °FClear.6 mph88%29.92 "Hg10 mi
1:50 am61 °FPassing clouds.6 mph88%29.95 "HgN/A
1:20 am61 °FClear.1 mph94%29.95 "Hg10 mi
12:50 am63 °FClear.3 mph83%29.95 "Hg10 mi
12:20 am66 °FPassing clouds.5 mph78%29.95 "HgN/A
11:50 pm
Fri, Jun 21
64 °FClear.6 mph88%29.95 "Hg10 mi
11:20 pm66 °FClear.1 mph78%29.92 "Hg10 mi
10:50 pm64 °FClear.2 mph83%29.92 "Hg10 mi
10:20 pm68 °FClear.2 mph73%29.95 "Hg10 mi
9:50 pm70 °FPassing clouds.3 mph69%29.92 "HgN/A
9:20 pm70 °FPassing clouds.6 mph64%29.92 "HgN/A
8:50 pm70 °FScattered clouds.12 mph69%29.89 "HgN/A
8:20 pm66 °FLight rain. Broken clouds.8 mph83%29.83 "HgN/A
7:50 pm70 °FThunderstorms. Broken clouds.16 mph73%29.92 "Hg5 mi
7:20 pm73 °FThunderstorms. Broken clouds.10 mph61%29.89 "HgN/A
6:50 pm75 °FBroken clouds.13 mph65%29.86 "HgN/A
6:20 pm77 °FPartly sunny.8 mph65%29.89 "HgN/A
5:50 pm77 °FPartly sunny.8 mph65%29.92 "HgN/A
5:20 pm77 °FBroken clouds.6 mph69%29.92 "HgN/A
4:50 pm79 °FPartly sunny.3 mph61%29.92 "HgN/A
4:20 pm77 °FPartly sunny.6 mph69%29.92 "HgN/A
3:50 pm77 °FPartly sunny.3 mph65%29.95 "HgN/A
3:20 pm75 °FPartly sunny.6 mph69%29.98 "HgN/A
2:50 pm73 °FScattered clouds.10 mph74%29.98 "HgN/A
2:20 pm72 °FBroken clouds.12 mph83%29.98 "HgN/A
Weather by CustomWeather, © 2024

See weather overview